createdAt,value
2024-01-11T00:00:40.124Z,17.00
2024-01-11T00:03:07.140Z,19.80
2024-01-11T00:05:34.216Z,29.63
2024-01-11T00:08:01.251Z,17.73
2024-01-11T00:10:28.579Z,28.63
2024-01-11T00:12:55.534Z,29.17
2024-01-11T00:15:23.636Z,12.97
2024-01-11T00:17:50.770Z,17.73
2024-01-11T00:20:18.252Z,25.47
2024-01-11T00:22:45.251Z,25.60
2024-01-11T00:25:12.278Z,23.33
2024-01-11T00:27:39.404Z,36.67
2024-01-11T00:30:07.474Z,23.33
2024-01-11T00:32:34.582Z,10.50
2024-01-11T00:35:01.607Z,30.93
2024-01-11T00:37:28.865Z,13.07
2024-01-11T00:39:55.863Z,13.40
2024-01-11T00:42:22.818Z,25.53
2024-01-11T00:44:51.147Z,16.50
2024-01-11T00:47:18.212Z,26.30
2024-01-11T00:49:45.636Z,37.83
2024-01-11T00:52:15.055Z,24.40
2024-01-11T00:54:42.229Z,29.23
2024-01-11T00:57:09.336Z,32.47
2024-01-11T00:59:36.434Z,37.87
2024-01-11T01:02:03.904Z,45.80
2024-01-11T01:04:30.909Z,11.23
2024-01-11T01:06:57.873Z,20.03
2024-01-11T01:09:25.107Z,30.03
2024-01-11T01:11:52.011Z,34.27
2024-01-11T01:14:19.189Z,37.63
2024-01-11T01:16:46.169Z,11.93
2024-01-11T01:19:13.211Z,50.20
2024-01-11T01:21:40.600Z,31.33
2024-01-11T01:24:07.583Z,24.77
2024-01-11T01:26:34.775Z,17.93
2024-01-11T01:29:03.070Z,24.87
2024-01-11T01:31:30.791Z,14.57
2024-01-11T01:33:57.918Z,16.57
2024-01-11T01:36:24.920Z,35.80
2024-01-11T01:38:51.877Z,15.43
2024-01-11T01:41:18.922Z,16.80
2024-01-11T01:43:45.918Z,21.33
2024-01-11T01:46:16.500Z,15.70
2024-01-11T01:48:43.689Z,17.07
2024-01-11T01:51:10.747Z,13.73
2024-01-11T01:53:38.380Z,19.83
2024-01-11T01:56:07.183Z,18.07
2024-01-11T01:58:35.009Z,28.17
2024-01-11T02:01:02.418Z,25.10
2024-01-11T02:03:31.312Z,25.00
2024-01-11T02:05:58.418Z,34.93
2024-01-11T02:08:26.935Z,24.00
2024-01-11T02:10:54.689Z,18.97
2024-01-11T02:13:22.157Z,25.10
2024-01-11T02:15:49.151Z,12.67
2024-01-11T02:18:16.354Z,11.13
2024-01-11T02:20:43.842Z,18.83
2024-01-11T02:23:18.411Z,17.97
2024-01-11T02:25:45.661Z,16.30
2024-01-11T02:28:12.676Z,23.30
2024-01-11T02:30:39.751Z,27.63
2024-01-11T02:33:07.105Z,8.60
2024-01-11T02:35:35.485Z,14.40
2024-01-11T02:38:03.266Z,10.17
2024-01-11T02:40:30.670Z,15.13
2024-01-11T02:42:57.985Z,14.33
2024-01-11T02:45:25.495Z,9.30
2024-01-11T02:47:52.838Z,12.47
2024-01-11T02:50:19.932Z,8.53
2024-01-11T02:52:46.940Z,8.43
2024-01-11T02:55:14.457Z,21.10
2024-01-11T02:57:41.732Z,42.07
2024-01-11T03:00:09.361Z,26.60
2024-01-11T03:02:38.188Z,17.87
2024-01-11T03:05:05.544Z,17.27
2024-01-11T03:07:33.604Z,36.00
2024-01-11T03:10:00.681Z,16.13
2024-01-11T03:12:28.293Z,16.63
2024-01-11T03:14:55.620Z,24.03
2024-01-11T03:17:22.785Z,25.23
2024-01-11T03:19:50.221Z,13.97
2024-01-11T03:22:17.830Z,13.63
2024-01-11T03:24:45.110Z,6.57
2024-01-11T03:27:12.005Z,43.27
2024-01-11T03:29:39.110Z,20.00
2024-01-11T03:32:06.706Z,21.13
2024-01-11T03:34:33.708Z,19.30
2024-01-11T03:37:01.188Z,14.77
2024-01-11T03:39:28.185Z,15.37
2024-01-11T03:41:55.198Z,13.93
2024-01-11T03:44:22.354Z,13.00
2024-01-11T03:46:49.400Z,11.43
2024-01-11T03:49:16.392Z,13.77
2024-01-11T03:51:43.706Z,10.80
2024-01-11T03:54:10.899Z,18.33
2024-01-11T03:56:41.719Z,24.87
2024-01-11T03:59:08.971Z,15.70
2024-01-11T04:01:41.847Z,10.07
2024-01-11T04:04:08.865Z,72.33
2024-01-11T04:06:36.103Z,9.83
2024-01-11T04:09:03.317Z,14.30
2024-01-11T04:11:30.559Z,18.90
2024-01-11T04:13:57.882Z,18.57
2024-01-11T04:16:24.940Z,11.30
2024-01-11T04:18:52.289Z,12.57
2024-01-11T04:21:30.015Z,6.10
2024-01-11T04:23:57.945Z,10.57
2024-01-11T04:26:25.307Z,13.67
2024-01-11T04:28:55.287Z,13.53
2024-01-11T04:31:23.465Z,28.27
2024-01-11T04:33:50.843Z,12.50
2024-01-11T04:36:18.213Z,14.53
2024-01-11T04:38:48.365Z,24.97
2024-01-11T04:41:16.829Z,14.70
2024-01-11T04:43:46.917Z,13.27
2024-01-11T04:46:21.898Z,24.77
2024-01-11T04:48:52.948Z,11.63
2024-01-11T04:51:20.610Z,35.00
2024-01-11T04:53:49.138Z,16.53
2024-01-11T04:56:17.958Z,7.63
2024-01-11T04:58:46.131Z,20.20
2024-01-11T05:01:18.170Z,12.17
2024-01-11T05:03:46.830Z,15.20
2024-01-11T05:06:22.174Z,9.63
2024-01-11T05:08:53.453Z,14.77
2024-01-11T05:11:22.384Z,16.40
2024-01-11T05:13:50.650Z,24.70
2024-01-11T05:16:29.040Z,60.03
2024-01-11T05:18:57.981Z,9.30
2024-01-11T05:21:25.797Z,8.67
2024-01-11T05:23:53.996Z,11.30
2024-01-11T05:26:21.960Z,12.27
2024-01-11T05:28:49.151Z,22.90
2024-01-11T05:31:17.437Z,11.27
2024-01-11T05:33:45.621Z,92.50
2024-01-11T05:36:13.157Z,19.70
2024-01-11T05:38:40.937Z,54.73
2024-01-11T05:41:09.099Z,16.53
2024-01-11T05:43:36.727Z,12.67
2024-01-11T05:46:04.085Z,23.50
2024-01-11T05:48:31.309Z,19.73
2024-01-11T05:50:58.341Z,16.17
2024-01-11T05:53:26.394Z,12.23
2024-01-11T05:55:55.232Z,34.87
2024-01-11T05:58:22.589Z,7.43
2024-01-11T06:00:50.023Z,11.93
2024-01-11T06:03:17.093Z,7.93
2024-01-11T06:05:44.462Z,19.47
2024-01-11T06:08:11.592Z,18.27
2024-01-11T06:10:39.338Z,15.33
2024-01-11T06:13:06.331Z,9.00
2024-01-11T06:15:33.344Z,13.30
2024-01-11T06:18:00.535Z,15.40
2024-01-11T06:20:27.606Z,31.10
2024-01-11T06:22:54.532Z,11.03
2024-01-11T06:25:21.596Z,7.73
2024-01-11T06:27:48.901Z,11.60
2024-01-11T06:30:16.444Z,33.27
2024-01-11T06:32:44.354Z,5.80
2024-01-11T06:35:12.428Z,11.93
2024-01-11T06:37:39.560Z,10.10
2024-01-11T06:40:09.372Z,16.83
2024-01-11T06:42:36.544Z,12.57
2024-01-11T06:45:06.174Z,9.77
2024-01-11T06:47:33.378Z,17.13
2024-01-11T06:50:01.074Z,23.30
2024-01-11T06:52:28.178Z,18.03
2024-01-11T06:54:55.219Z,28.60
2024-01-11T06:57:22.486Z,9.73
2024-01-11T06:59:50.333Z,20.80
2024-01-11T07:02:17.447Z,26.37
2024-01-11T07:04:47.755Z,18.93
2024-01-11T07:07:15.195Z,31.33
2024-01-11T07:09:42.139Z,37.63
2024-01-11T07:12:09.287Z,16.97
2024-01-11T07:14:37.098Z,24.87
2024-01-11T07:17:05.532Z,13.10
2024-01-11T07:19:33.109Z,12.53
2024-01-11T07:22:00.337Z,14.93
2024-01-11T07:24:27.661Z,28.43
2024-01-11T07:26:55.594Z,19.43
2024-01-11T07:29:23.235Z,13.10
2024-01-11T07:31:50.621Z,14.57
2024-01-11T07:34:19.059Z,16.30
2024-01-11T07:36:46.342Z,15.27
2024-01-11T07:39:13.632Z,35.27
2024-01-11T07:41:41.005Z,55.97
2024-01-11T07:44:08.630Z,15.57
2024-01-11T07:46:39.515Z,14.10
2024-01-11T07:49:13.655Z,17.47
2024-01-11T07:51:40.901Z,8.10
2024-01-11T07:54:08.323Z,28.40
2024-01-11T07:56:36.694Z,16.60
2024-01-11T07:59:04.054Z,24.07
2024-01-11T08:01:31.135Z,15.40
2024-01-11T08:03:58.709Z,21.53
2024-01-11T08:06:26.145Z,9.83
2024-01-11T08:08:53.876Z,25.33
2024-01-11T08:11:21.804Z,13.67
2024-01-11T08:13:48.883Z,12.67
2024-01-11T08:16:22.406Z,19.13
2024-01-11T08:18:50.616Z,26.33
2024-01-11T08:21:17.552Z,88.93
2024-01-11T08:23:50.319Z,32.37
2024-01-11T08:26:20.453Z,52.90
2024-01-11T08:28:47.767Z,54.03
2024-01-11T08:31:14.922Z,40.77
2024-01-11T08:33:41.961Z,61.33
2024-01-11T08:36:09.569Z,59.87
2024-01-11T08:38:37.551Z,118.57
2024-01-11T08:41:05.636Z,47.43
2024-01-11T08:43:32.944Z,49.60
2024-01-11T08:46:01.754Z,61.57
2024-01-11T08:48:29.933Z,24.37
2024-01-11T08:50:57.474Z,46.80
2024-01-11T08:53:24.466Z,22.20
2024-01-11T08:55:51.419Z,21.13
2024-01-11T08:58:18.422Z,17.23
2024-01-11T09:00:45.560Z,18.40
2024-01-11T09:03:15.097Z,28.87
2024-01-11T09:05:42.630Z,32.50
2024-01-11T09:08:10.059Z,39.97
2024-01-11T09:10:37.687Z,32.00
2024-01-11T09:13:05.096Z,35.47
2024-01-11T09:15:31.978Z,19.93
2024-01-11T09:18:02.508Z,35.63
2024-01-11T09:20:29.719Z,39.83
2024-01-11T09:22:56.714Z,32.90
2024-01-11T09:25:25.196Z,32.97
2024-01-11T09:27:52.392Z,14.50
2024-01-11T09:30:19.538Z,10.63
2024-01-11T09:32:46.784Z,12.07
2024-01-11T09:35:16.276Z,9.33
2024-01-11T09:37:46.168Z,25.57
2024-01-11T09:40:13.535Z,4.07
2024-01-11T09:42:41.580Z,4.03
2024-01-11T09:45:14.912Z,9.60
2024-01-11T09:47:42.284Z,5.83
2024-01-11T09:50:10.461Z,4.20
2024-01-11T09:52:39.562Z,1.03
2024-01-11T09:55:07.753Z,4.23
2024-01-11T09:57:38.451Z,3.87
2024-01-11T10:00:09.155Z,3.33
2024-01-11T10:02:36.970Z,4.47
2024-01-11T10:05:04.810Z,8.60
2024-01-11T10:07:34.265Z,3.77
2024-01-11T10:10:01.949Z,9.07
2024-01-11T10:12:30.229Z,14.27
2024-01-11T10:15:07.874Z,21.53
2024-01-11T10:17:35.064Z,25.70
2024-01-11T10:20:04.121Z,44.03
2024-01-11T10:22:31.631Z,22.33
2024-01-11T10:25:19.018Z,17.43
2024-01-11T10:27:47.295Z,11.93
2024-01-11T10:30:18.754Z,5.47
2024-01-11T10:32:47.109Z,2.73
2024-01-11T10:35:14.661Z,5.80
2024-01-11T10:37:44.377Z,1.50
2024-01-11T10:40:16.072Z,2.30
2024-01-11T10:42:45.098Z,2.97
2024-01-11T10:45:20.201Z,4.17
2024-01-11T10:48:17.506Z,1.27
2024-01-11T10:50:47.282Z,1.13
2024-01-11T10:53:26.912Z,0.83
2024-01-11T10:56:02.922Z,2.73
2024-01-11T10:58:30.560Z,2.00
2024-01-11T11:00:58.821Z,0.47
2024-01-11T11:03:29.162Z,0.43
2024-01-11T11:05:57.977Z,1.10
2024-01-11T11:08:28.977Z,0.60
2024-01-11T11:11:00.899Z,1.13
2024-01-11T11:13:28.761Z,1.37
2024-01-11T11:16:01.863Z,0.50
2024-01-11T11:18:29.549Z,0.50
2024-01-11T11:20:56.633Z,4.47
2024-01-11T11:23:24.265Z,0.60
2024-01-11T11:25:54.802Z,3.03
2024-01-11T11:28:22.199Z,2.40
2024-01-11T11:30:54.713Z,1.07
2024-01-11T11:33:24.552Z,2.60
2024-01-11T11:35:56.540Z,0.43
2024-01-11T11:38:27.016Z,2.20
2024-01-11T11:40:56.000Z,1.00
2024-01-11T11:43:23.825Z,4.37
2024-01-11T11:45:52.667Z,0.50
2024-01-11T11:48:36.908Z,6.77
2024-01-11T11:51:07.246Z,0.93
2024-01-11T11:53:41.924Z,0.60
2024-01-11T11:56:18.919Z,4.93
2024-01-11T11:58:47.276Z,0.90
2024-01-11T12:01:16.909Z,3.80
2024-01-11T12:03:50.172Z,0.40
2024-01-11T12:06:19.938Z,1.67
2024-01-11T12:08:49.108Z,0.90
2024-01-11T12:11:21.893Z,1.50
2024-01-11T12:13:50.523Z,0.60
2024-01-11T12:16:17.609Z,0.40
2024-01-11T12:18:45.775Z,7.30
2024-01-11T12:21:14.471Z,1.03
2024-01-11T12:23:45.751Z,1.33
2024-01-11T12:26:15.127Z,0.30
2024-01-11T12:28:43.940Z,2.63
2024-01-11T12:31:12.537Z,7.33
2024-01-11T12:33:40.526Z,0.97
2024-01-11T12:36:09.663Z,3.63
2024-01-11T12:38:37.127Z,0.50
2024-01-11T12:41:06.488Z,1.13
2024-01-11T12:43:35.803Z,0.60
2024-01-11T12:46:04.138Z,0.40
2024-01-11T12:48:31.954Z,0.80
2024-01-11T12:51:10.445Z,0.50
2024-01-11T12:53:47.221Z,1.73
2024-01-11T12:56:16.885Z,0.40
2024-01-11T12:58:44.559Z,1.57
2024-01-11T13:01:12.019Z,2.17
2024-01-11T13:03:41.030Z,0.47
2024-01-11T13:06:10.280Z,0.70
2024-01-11T13:08:38.806Z,0.30
2024-01-11T13:11:09.141Z,0.50
2024-01-11T13:13:36.814Z,0.60
2024-01-11T13:16:07.413Z,0.50
2024-01-11T13:18:35.167Z,1.53
2024-01-11T13:21:04.368Z,0.70
2024-01-11T13:23:32.492Z,0.60
2024-01-11T13:25:59.560Z,0.70
2024-01-11T13:28:28.158Z,1.53
2024-01-11T13:30:55.369Z,1.13
2024-01-11T13:33:25.050Z,2.60
2024-01-11T13:35:52.481Z,0.50
2024-01-11T13:38:21.684Z,0.70
2024-01-11T13:40:50.861Z,0.87
2024-01-11T13:43:18.554Z,1.90
2024-01-11T13:45:46.260Z,0.67
2024-01-11T13:48:14.366Z,0.87
2024-01-11T13:50:42.083Z,1.07
2024-01-11T13:53:09.174Z,0.67
2024-01-11T13:55:40.137Z,0.50
2024-01-11T13:58:08.121Z,3.70
2024-01-11T14:00:35.393Z,1.30
2024-01-11T14:03:02.939Z,0.67
2024-01-11T14:05:30.216Z,1.57
2024-01-11T14:08:00.926Z,0.90
2024-01-11T14:10:28.935Z,11.23
2024-01-11T14:12:56.400Z,5.77
2024-01-11T14:15:24.269Z,1.30
2024-01-11T14:17:51.748Z,3.47
2024-01-11T14:20:19.210Z,2.80
2024-01-11T14:22:50.338Z,1.17
2024-01-11T14:25:20.038Z,1.13
2024-01-11T14:27:49.006Z,1.13
2024-01-11T14:30:16.411Z,3.23
2024-01-11T14:32:44.408Z,1.50
2024-01-11T14:35:11.819Z,1.90
2024-01-11T14:37:40.604Z,0.80
2024-01-11T14:40:13.341Z,0.87
2024-01-11T14:42:40.992Z,2.30
2024-01-11T14:45:09.466Z,4.10
2024-01-11T14:47:36.948Z,1.90
2024-01-11T14:50:05.784Z,1.23
2024-01-11T14:52:33.336Z,3.77
2024-01-11T14:55:00.854Z,4.37
2024-01-11T14:57:28.191Z,0.43
2024-01-11T14:59:57.078Z,2.00
2024-01-11T15:02:25.179Z,1.07
2024-01-11T15:04:52.405Z,4.63
2024-01-11T15:07:19.584Z,2.40
2024-01-11T15:09:46.543Z,4.37
2024-01-11T15:12:13.552Z,1.77
2024-01-11T15:14:40.667Z,7.13
2024-01-11T15:17:07.657Z,1.53
2024-01-11T15:19:34.781Z,3.67
2024-01-11T15:22:01.827Z,3.27
2024-01-11T15:24:29.955Z,4.13
2024-01-11T15:26:57.458Z,2.80
2024-01-11T15:29:24.767Z,5.90
2024-01-11T15:31:52.210Z,3.37
2024-01-11T15:34:20.422Z,2.10
2024-01-11T15:36:48.146Z,3.40
2024-01-11T15:39:24.875Z,3.37
2024-01-11T15:41:57.600Z,1.23
2024-01-11T15:44:28.073Z,3.23
2024-01-11T15:46:58.346Z,2.83
2024-01-11T15:49:25.965Z,1.60
2024-01-11T15:51:55.822Z,3.63
2024-01-11T15:54:53.289Z,4.03
2024-01-11T15:57:20.197Z,4.40
2024-01-11T15:59:47.315Z,2.23
2024-01-11T16:02:15.820Z,2.10
2024-01-11T16:04:45.296Z,2.63
2024-01-11T16:07:12.280Z,2.73
2024-01-11T16:09:39.255Z,2.70
2024-01-11T16:12:07.151Z,5.50
2024-01-11T16:14:34.266Z,2.20
2024-01-11T16:17:02.233Z,4.70
2024-01-11T16:19:29.360Z,2.53
2024-01-11T16:21:56.343Z,6.90
2024-01-11T16:24:23.595Z,6.63
2024-01-11T16:26:50.652Z,7.10
2024-01-11T16:29:17.752Z,0.97
2024-01-11T16:31:44.725Z,31.97
2024-01-11T16:34:12.792Z,3.23
2024-01-11T16:36:39.818Z,3.23
2024-01-11T16:39:13.124Z,2.50
2024-01-11T16:41:42.104Z,3.80
2024-01-11T16:44:11.793Z,4.50
2024-01-11T16:46:38.749Z,4.10
2024-01-11T16:49:06.016Z,1.27
2024-01-11T16:51:33.261Z,1.63
2024-01-11T16:54:00.685Z,2.63
2024-01-11T16:56:28.242Z,10.40
2024-01-11T16:58:57.048Z,2.57
2024-01-11T17:01:24.329Z,2.23
2024-01-11T17:03:51.308Z,1.63
2024-01-11T17:06:20.800Z,1.03
2024-01-11T17:08:48.540Z,1.13
2024-01-11T17:11:15.901Z,1.00
2024-01-11T17:13:43.094Z,0.90
2024-01-11T17:16:11.242Z,1.93
2024-01-11T17:18:38.425Z,4.73
2024-01-11T17:21:10.407Z,1.37
2024-01-11T17:23:37.618Z,2.20
2024-01-11T17:26:07.402Z,2.30
2024-01-11T17:28:34.885Z,3.07
2024-01-11T17:31:04.033Z,3.77
2024-01-11T17:33:31.950Z,0.83
2024-01-11T17:35:59.214Z,0.73
2024-01-11T17:38:26.284Z,0.97
2024-01-11T17:40:53.902Z,2.07
2024-01-11T17:43:21.298Z,0.87
2024-01-11T17:45:52.436Z,3.60
2024-01-11T17:48:20.003Z,1.00
2024-01-11T17:50:47.448Z,7.63
2024-01-11T17:53:17.287Z,2.50
2024-01-11T17:55:45.443Z,1.00
2024-01-11T17:58:12.597Z,3.60
2024-01-11T18:00:40.276Z,0.80
2024-01-11T18:03:07.410Z,2.87
2024-01-11T18:05:34.831Z,0.97
2024-01-11T18:08:02.012Z,6.03
2024-01-11T18:10:29.432Z,1.50
2024-01-11T18:12:56.428Z,0.40
2024-01-11T18:15:23.397Z,6.23
2024-01-11T18:17:50.401Z,3.67
2024-01-11T18:20:17.912Z,4.20
2024-01-11T18:22:45.380Z,0.70
2024-01-11T18:25:12.457Z,1.50
2024-01-11T18:27:41.853Z,1.93
2024-01-11T18:30:10.397Z,0.60
2024-01-11T18:32:38.724Z,5.50
2024-01-11T18:35:08.118Z,0.90
2024-01-11T18:37:35.180Z,5.87
2024-01-11T18:40:02.464Z,3.50
2024-01-11T18:42:30.191Z,2.87
2024-01-11T18:44:59.324Z,3.33
2024-01-11T18:47:27.201Z,3.70
2024-01-11T18:49:54.471Z,0.73
2024-01-11T18:52:23.983Z,1.27
2024-01-11T18:54:57.446Z,2.57
2024-01-11T18:57:28.557Z,1.10
2024-01-11T18:59:56.439Z,1.60
2024-01-11T19:02:23.731Z,1.17
2024-01-11T19:04:51.146Z,1.33
2024-01-11T19:07:18.380Z,3.77
2024-01-11T19:09:45.542Z,1.23
2024-01-11T19:12:13.384Z,1.90
2024-01-11T19:14:40.305Z,3.00
2024-01-11T19:17:07.781Z,2.10
2024-01-11T19:19:36.308Z,2.30
2024-01-11T19:22:05.735Z,5.83
2024-01-11T19:24:35.807Z,1.57
2024-01-11T19:27:03.282Z,2.23
2024-01-11T19:29:33.545Z,2.00
2024-01-11T19:32:01.701Z,1.17
2024-01-11T19:34:28.808Z,3.27
2024-01-11T19:36:55.767Z,1.93
2024-01-11T19:39:22.923Z,2.43
2024-01-11T19:41:50.664Z,2.60
2024-01-11T19:44:17.799Z,2.17
2024-01-11T19:46:45.479Z,2.23
2024-01-11T19:49:13.377Z,1.53
2024-01-11T19:51:41.149Z,0.80
2024-01-11T19:54:09.612Z,1.03
2024-01-11T19:56:36.891Z,3.30
2024-01-11T19:59:07.187Z,4.63
2024-01-11T20:01:34.152Z,2.50
2024-01-11T20:04:01.714Z,4.80
2024-01-11T20:06:28.782Z,1.47
2024-01-11T20:08:57.148Z,1.47
2024-01-11T20:11:25.289Z,1.17
2024-01-11T20:13:52.334Z,2.27
2024-01-11T20:16:19.530Z,1.40
2024-01-11T20:18:47.184Z,1.10
2024-01-11T20:21:14.492Z,2.67
2024-01-11T20:23:45.718Z,4.27
2024-01-11T20:26:16.428Z,1.60
2024-01-11T20:28:43.405Z,6.43
2024-01-11T20:31:10.563Z,0.57
2024-01-11T20:33:38.440Z,2.70
2024-01-11T20:36:11.133Z,1.40
2024-01-11T20:38:41.118Z,1.13
2024-01-11T20:41:08.439Z,2.27
2024-01-11T20:43:35.743Z,5.63
2024-01-11T20:46:02.737Z,0.63
2024-01-11T20:48:29.985Z,1.37
2024-01-11T20:50:57.179Z,10.50
2024-01-11T20:53:24.736Z,3.63
2024-01-11T20:55:54.084Z,0.80
2024-01-11T20:58:20.972Z,1.97
2024-01-11T21:00:48.218Z,2.03
2024-01-11T21:03:15.237Z,1.53
2024-01-11T21:05:43.754Z,0.83
2024-01-11T21:08:11.127Z,1.43
2024-01-11T21:10:38.102Z,1.23
2024-01-11T21:13:05.540Z,0.87
2024-01-11T21:15:32.552Z,1.80
2024-01-11T21:17:59.624Z,4.33
2024-01-11T21:20:26.797Z,7.30
2024-01-11T21:22:54.473Z,1.73
2024-01-11T21:25:23.788Z,1.33
2024-01-11T21:27:51.259Z,0.93
2024-01-11T21:30:18.389Z,2.53
2024-01-11T21:32:46.060Z,0.80
2024-01-11T21:35:13.265Z,0.87
2024-01-11T21:37:41.322Z,1.70
2024-01-11T21:40:10.047Z,1.53
2024-01-11T21:42:37.852Z,0.60
2024-01-11T21:45:09.875Z,0.97
2024-01-11T21:47:37.003Z,0.63
2024-01-11T21:50:04.323Z,1.73
2024-01-11T21:52:32.649Z,2.40
2024-01-11T21:54:59.841Z,2.00
2024-01-11T21:57:26.751Z,0.50
2024-01-11T21:59:54.003Z,1.47
2024-01-11T22:02:21.455Z,0.70
2024-01-11T22:04:48.448Z,2.73
2024-01-11T22:07:16.102Z,0.80
2024-01-11T22:09:43.881Z,4.37
2024-01-11T22:12:10.842Z,2.20
2024-01-11T22:14:39.612Z,1.60
2024-01-11T22:17:06.997Z,2.77
2024-01-11T22:19:34.231Z,0.73
2024-01-11T22:22:04.304Z,1.13
2024-01-11T22:24:32.163Z,2.27
2024-01-11T22:26:59.142Z,2.03
2024-01-11T22:29:26.198Z,2.40
2024-01-11T22:31:53.421Z,2.30
2024-01-11T22:34:20.472Z,1.80
2024-01-11T22:36:48.436Z,2.83
2024-01-11T22:39:15.380Z,1.83
2024-01-11T22:41:42.822Z,0.97
2024-01-11T22:44:10.106Z,3.57
2024-01-11T22:46:37.260Z,1.40
2024-01-11T22:49:06.116Z,3.00
2024-01-11T22:51:33.491Z,1.83
2024-01-11T22:54:01.404Z,0.93
2024-01-11T22:56:29.616Z,2.37
2024-01-11T22:58:56.539Z,1.90
2024-01-11T23:01:23.719Z,0.30
2024-01-11T23:03:51.335Z,1.27
2024-01-11T23:06:18.474Z,4.33
2024-01-11T23:08:49.154Z,0.40
2024-01-11T23:11:16.288Z,1.30
2024-01-11T23:13:43.223Z,0.80
2024-01-11T23:16:10.787Z,3.37
2024-01-11T23:18:39.092Z,0.40
2024-01-11T23:21:06.309Z,3.50
2024-01-11T23:23:33.415Z,5.50
2024-01-11T23:26:00.386Z,1.33
2024-01-11T23:28:27.274Z,0.80
2024-01-11T23:30:54.680Z,1.00
2024-01-11T23:33:21.807Z,2.67
2024-01-11T23:35:48.999Z,3.00
2024-01-11T23:38:17.837Z,1.27
2024-01-11T23:40:45.091Z,0.93
2024-01-11T23:43:12.056Z,2.00
2024-01-11T23:45:38.983Z,2.37
2024-01-11T23:48:06.307Z,2.73
2024-01-11T23:50:33.570Z,1.07
2024-01-11T23:53:00.662Z,1.27
2024-01-11T23:55:27.604Z,1.00
2024-01-11T23:57:55.466Z,1.73
